Latest Conditions
At L.F.Wade Int. Airport
Recorded at 9:55 pm
Partly Cloudy
Temp.: 
28°C/82°F
Humidity: 
80%
Wind: 
NNW 6KT
or 7mph
UV Index: 
0
Island Observations
 
Observations
Tuesday, August 14, 2018

Observations are in local time and taken at least once an hour, or upon the start and end of specified events such as showers and thunderstorms.

Time Sky / Weather Wind Speed/Gusts Temp. R.H. Pressure
     knots (mph)  °C (°F)  %  mb / "Hg
 21:55 Partly Cloudy  NNW 6/0 (7/0) 28(82) 80 1021 / 30.16
 20:55 Partly Cloudy  NW 10/0 (12/0) 28(82) 80 1021 / 30.15
 19:55 Partly Cloudy  NW 8/0 (9/0) 28(82) 80 1021 / 30.14
 18:55 Partly Cloudy  NW 10/0 (12/0) 28(83) 76 1020 / 30.13
 17:55 Partly Cloudy  NW 10/0 (12/0) 29(83) 75 1020 / 30.13
 16:55 Partly Cloudy  WNW 10/0 (12/0) 29(84) 73 1020 / 30.13
 15:55 Partly Cloudy  WNW 11/0 (13/0) 30(85) 72 1021 / 30.14
 14:55 Partly Cloudy  WNW 11/0 (13/0) 29(84) 74 1021 / 30.16
 13:55 Few Clouds  WNW 12/0 (14/0) 30(85) 73 1022 / 30.17
 12:55 Few Clouds  WNW 12/0 (14/0) 29(85) 72 1022 / 30.17
 11:55 Few Clouds  WNW 10/0 (12/0) 29(84) 73 1022 / 30.18
 10:55 Few Clouds  WNW 8/0 (9/0) 28(83) 72 1022 / 30.18
 09:55 Partly Cloudy  WNW 7/0 (8/0) 28(83) 76 1022 / 30.17
 08:55 Few Clouds  WNW 6/0 (7/0) 28(83) 74 1022 / 30.17
 07:55 Few Clouds  WNW 4/0 (5/0) 27(81) 78 1021 / 30.16
 06:55 Few Clouds  NW 4/0 (5/0) 27(80) 82 1021 / 30.15
 05:55 Few Clouds  NW 6/0 (7/0) 27(81) 79 1021 / 30.16
 04:55 Few Clouds  NW 7/0 (8/0) 27(81) 77 1021 / 30.15
 03:55 Partly Cloudy  WNW 7/0 (8/0) 27(81) 81 1021 / 30.16
 02:55 Few Clouds  WNW 6/0 (7/0) 27(81) 81 1021 / 30.16
 02:10 Partly Cloudy Showers NW 6/0 (7/0) 27(81) 79 1021 / 30.16
 01:55 Partly Cloudy Showers WNW 6/0 (7/0) 27(81) 80 1022 / 30.17
 00:55 Few Clouds  WNW 6/0 (7/0) 27(81) 82 1022 / 30.17
 23:55 Few Clouds  WNW 7/0 (8/0) 27(81) 81 1022 / 30.18
 22:55 Few Clouds  W 7/0 (8/0) 27(81) 82 1022 / 30.18
 21:55 Few Clouds  WNW 5/0 (6/0) 27(81) 82 1022 / 30.17
 20:55 Few Clouds  WNW 6/0 (7/0) 28(82) 76 1022 / 30.17
 19:55 Few Clouds  WNW 9/0 (10/0) 28(82) 76 1022 / 30.17
 18:55 Few Clouds Showers WNW 10/0 (12/0) 28(83) 77 1022 / 30.17
 17:55 Partly Cloudy  W 10/0 (12/0) 29(84) 78 1022 / 30.18
 16:55 Partly Cloudy  W 10/0 (12/0) 30(85) 71 1022 / 30.18
 15:55 Partly Cloudy  W 10/0 (12/0) 30(85) 71 1022 / 30.19
 14:55 Partly Cloudy  W 11/0 (13/0) 30(85) 70 1023 / 30.21
 13:55 Partly Cloudy  W 10/0 (12/0) 29(84) 75 1023 / 30.22
 12:55 Partly Cloudy  WNW 9/0 (10/0) 29(84) 69 1024 / 30.23
 11:55 Partly Cloudy  W 11/0 (13/0) 29(84) 69 1024 / 30.24
 10:55 Partly Cloudy  W 10/0 (12/0) 29(83) 75 1024 / 30.24
 09:55 Partly Cloudy  W 10/0 (12/0) 28(83) 74 1024 / 30.23
 08:55 Partly Cloudy Showers W 10/0 (12/0) 28(82) 79 1024 / 30.23
 07:55 Partly Cloudy Showers W 8/0 (9/0) 28(82) 80 1024 / 30.23
 06:55 Mostly Cloudy Showers WSW 7/0 (8/0) 27(81) 82 1023 / 30.21
 06:02 Mostly Cloudy Showers WSW 6/0 (7/0) 27(81) 84 1023 / 30.20
 05:55 Mostly Cloudy Showers W 9/0 (10/0) 27(80) 87 1023 / 30.20
 05:36 Partly Cloudy Showers W 8/0 (9/0) 27(80) 84 1023 / 30.20
 04:55 Partly Cloudy Showers SW 7/0 (8/0) 27(80) 86 1023 / 30.20
 03:55 Few Clouds  SW 8/0 (9/0) 27(81) 83 1023 / 30.20
 02:55 Partly Cloudy Showers SW 7/0 (8/0) 27(81) 83 1023 / 30.22
 02:28 Few Clouds Showers WSW 7/0 (8/0) 27(81) 84 1023 / 30.22
 02:20 Partly Cloudy Showers WSW 7/0 (8/0) 27(81) 85 1023 / 30.22
 01:55 Partly Cloudy Showers SW 8/0 (9/0) 27(81) 81 1024 / 30.23
 00:55 Partly Cloudy  WSW 6/0 (7/0) 27(81) 82 1024 / 30.25
 23:55 Partly Cloudy  W 6/0 (7/0) 28(82) 80 1024 / 30.25
 22:55 Mostly Cloudy Showers WSW 7/0 (8/0) 28(82) 82 1024 / 30.25
 21:55 Mostly Cloudy  W 9/0 (10/0) 28(82) 80 1024 / 30.25
 21:05 Mostly Cloudy Showers W 5/0 (6/0) 28(82) 82 1024 / 30.24
 20:55 Mostly Cloudy Showers W 10/0 (12/0) 27(81) 83 1024 / 30.24
 19:55 Mostly Cloudy  W 11/0 (13/0) 28(82) 82 1024 / 30.23
 19:16 Mostly Cloudy Showers NW 8/0 (9/0) 28(83) 78 1023 / 30.22
 18:55 Mostly Cloudy Showers W 11/0 (13/0) 28(83) 83 1023 / 30.22
 17:55 Mostly Cloudy  W 11/0 (13/0) 29(84) 76 1024 / 30.23
 16:55 Mostly Cloudy Showers W 11/0 (13/0) 29(84) 76 1024 / 30.23
 15:55 Mostly Cloudy  W 12/0 (14/0) 29(85) 72 1024 / 30.23
 14:55 Mostly Cloudy Showers WSW 13/0 (15/0) 30(85) 74 1024 / 30.24
 13:55 Mostly Cloudy Showers WSW 10/0 (12/0) 28(82) 73 1024 / 30.25
 13:04 Mostly Cloudy Showers WSW 7/0 (8/0) 27(81) 85 1025 / 30.26
 12:58 Mostly Cloudy Showers W 17/0 (20/0) 26(79) 88 1025 / 30.26
 12:55 Mostly Cloudy Showers WSW 16/0 (18/0) 26(78) 87 1025 / 30.26
 12:47 Mostly Cloudy Showers WSW 13/25 (15/29) 26(80) 84 1025 / 30.26
 12:46 Mostly Cloudy Showers WSW 12/24 (14/28) 28(82) 82 1025 / 30.26
 11:55 Partly Cloudy  WSW 11/0 (13/0) 29(85) 72 1025 / 30.26
 10:55 Partly Cloudy  WSW 12/0 (14/0) 29(84) 75 1024 / 30.25
 09:55 Partly Cloudy  SW 10/0 (12/0) 28(83) 77 1024 / 30.24
 08:55 Partly Cloudy  SW 10/0 (12/0) 28(83) 75 1024 / 30.23
 07:55 Partly Cloudy  SW 12/0 (14/0) 28(82) 83 1023 / 30.22
 06:55 Partly Cloudy  SW 11/0 (13/0) 27(81) 84 1023 / 30.21
 05:55 Mostly Cloudy Showers SW 9/0 (10/0) 27(81) 82 1023 / 30.20
 04:55 Few Clouds  SW 12/0 (14/0) 27(81) 82 1022 / 30.19
 03:55 Few Clouds  SW 11/0 (13/0) 27(81) 83 1022 / 30.19
 02:55 Partly Cloudy  SW 11/0 (13/0) 27(80) 84 1022 / 30.19
 01:55 Few Clouds  SW 12/0 (14/0) 27(81) 85 1023 / 30.20
 00:55 Partly Cloudy  SW 11/0 (13/0) 27(81) 85 1023 / 30.20
 00:19 Mostly Cloudy Showers SW 15/0 (17/0) 27(80) 88 1023 / 30.20
 00:09 Mostly Cloudy Showers SSW 12/0 (14/0) 28(82) 83 1023 / 30.20
 23:55 Partly Cloudy Showers SSW 14/0 (16/0) 27(81) 84 1023 / 30.20
 22:55 Partly Cloudy  SSW 14/0 (16/0) 28(82) 82 1023 / 30.20
 21:55 Mostly Cloudy Showers SW 13/0 (15/0) 28(82) 83 1022 / 30.19
 20:55 Mostly Cloudy Showers SSW 11/0 (13/0) 28(83) 80 1022 / 30.17
 19:55 Mostly Cloudy  SW 11/0 (13/0) 28(83) 80 1021 / 30.16
 18:55 Mostly Cloudy  SW 13/0 (15/0) 29(84) 72 1021 / 30.15
 17:55 Mostly Cloudy  SSW 14/0 (16/0) 29(85) 71 1021 / 30.15
 16:55 Mostly Cloudy Showers SW 21/0 (24/0) 28(83) 76 1021 / 30.15
 15:55 Mostly Cloudy  SSW 17/0 (20/0) 29(85) 72 1021 / 30.15
 14:55 Mostly Cloudy Showers SW 14/0 (16/0) 30(85) 74 1021 / 30.16
 14:05 Mostly Cloudy Showers SW 15/27 (17/31) 27(81) 77 1021 / 30.16
 13:55 Mostly Cloudy Showers SW 13/0 (15/0) 27(80) 82 1021 / 30.16
 13:46 Mostly Cloudy Showers SW 13/0 (15/0) 28(83) 78 1021 / 30.16
 13:37 Mostly Cloudy Showers SW 15/0 (17/0) 28(83) 75 1021 / 30.16
 13:28 Mostly Cloudy Showers SW 18/0 (21/0) 28(83) 76 1021 / 30.16
 12:55 Partly Cloudy Showers SSW 19/0 (22/0) 30(86) 66 1021 / 30.15
 11:55 Partly Cloudy  SSW 19/0 (22/0) 30(86) 71 1021 / 30.15
Island AWOS